Time;durP1;ratioP1;P1;durP2;ratioP2;P2;SDS_P1;SDS_P2;PMS_P1;PMS_P2;Temp;Humidity;BMP_temperature;BMP_pressure;BME280_temperature;BME280_humidity;BME280_pressure;Samples;Min_cycle;Max_cycle;Signal;HPM_P1;HPM_P2
2021/06/21 00:01:23;;;;;;;9.27;7.55;;;;;;;23.83;63.88;99543.44;4966088;28;20043;-74
2021/06/21 00:03:49;;;;;;;12.48;8.05;;;;;;;23.83;63.88;99542.59;4963688;28;20075;-74
2021/06/21 00:06:15;;;;;;;14.05;8.25;;;;;;;23.82;63.74;99540.88;4964675;28;20177;-74
2021/06/21 00:08:40;;;;;;;13.95;8.15;;;;;;;23.79;64.27;99535.75;4965612;28;20058;-74
2021/06/21 00:11:06;;;;;;;14.98;8.02;;;;;;;23.75;64.08;99536.94;4964939;28;20487;-74
2021/06/21 00:13:31;;;;;;;12.13;8.20;;;;;;;23.79;64.05;99546.53;4946076;28;20463;-74
2021/06/21 00:15:57;;;;;;;12.25;7.60;;;;;;;23.83;63.61;99545.28;4965786;28;20038;-74
2021/06/21 00:18:23;;;;;;;9.93;6.88;;;;;;;23.90;63.20;99537.59;4962702;28;20142;-74
2021/06/21 00:20:49;;;;;;;9.88;7.53;;;;;;;23.94;63.04;99533.69;4948386;28;20031;-74
2021/06/21 00:23:15;;;;;;;12.57;7.95;;;;;;;23.99;63.22;99537.72;4963217;28;20046;-74
2021/06/21 00:25:40;;;;;;;12.98;8.07;;;;;;;23.99;63.20;99537.72;4964265;28;20047;-74
2021/06/21 00:28:05;;;;;;;15.30;8.40;;;;;;;24.00;62.73;99539.47;4964330;28;20043;-74
2021/06/21 00:30:31;;;;;;;11.82;8.02;;;;;;;24.04;62.59;99540.94;4946288;28;20043;-74
2021/06/21 00:32:56;;;;;;;12.00;7.47;;;;;;;24.06;62.88;99538.97;4965123;28;20042;-74
2021/06/21 00:35:22;;;;;;;12.82;8.02;;;;;;;24.05;62.88;99526.50;4944838;28;20039;-74
2021/06/21 00:37:48;;;;;;;15.73;8.32;;;;;;;24.05;62.79;99523.81;4948387;28;20085;-74
2021/06/21 00:40:14;;;;;;;16.58;8.45;;;;;;;24.08;62.70;99524.50;4962545;28;20043;-75
2021/06/21 00:42:43;;;;;;;13.77;7.88;;;;;;;24.08;62.55;99532.59;4964703;28;20047;-74
2021/06/21 00:45:09;;;;;;;10.68;7.85;;;;;;;24.09;62.64;99535.19;4945620;28;20086;-74
2021/06/21 00:47:34;;;;;;;14.02;8.75;;;;;;;23.97;63.05;99542.41;4964096;28;20039;-74
2021/06/21 00:50:00;;;;;;;15.10;9.05;;;;;;;23.94;63.66;99548.00;4963965;28;20031;-74
2021/06/21 00:52:25;;;;;;;12.38;8.48;;;;;;;23.98;63.37;99545.94;4962963;28;20046;-74
2021/06/21 00:55:00;;;;;;;11.98;8.68;;;;;;;24.04;62.87;99567.03;4964560;28;20161;-75
2021/06/21 00:57:30;;;;;;;13.93;9.30;;;;;;;24.03;63.16;99574.25;4963214;28;20117;-75
2021/06/21 00:59:58;;;;;;;12.25;8.40;;;;;;;24.01;63.13;99589.69;4963978;28;20174;-74
2021/06/21 01:02:25;;;;;;;13.52;9.23;;;;;;;24.02;63.35;99607.56;4962956;28;20122;-74
2021/06/21 01:04:50;;;;;;;11.50;8.23;;;;;;;24.06;63.51;99600.97;4964075;28;20042;-74
2021/06/21 01:07:16;;;;;;;14.98;9.05;;;;;;;24.09;62.96;99617.88;4961834;28;20043;-74
2021/06/21 01:09:42;;;;;;;16.30;9.52;;;;;;;24.06;62.99;99646.78;4965098;28;20046;-74
2021/06/21 01:12:13;;;;;;;17.90;10.57;;;;;;;23.96;63.75;99655.69;4961810;28;20074;-74
2021/06/21 01:14:47;;;;;;;12.88;10.25;;;;;;;23.78;64.73;99668.72;4961512;28;20118;-74
2021/06/21 01:17:24;;;;;;;16.25;10.38;;;;;;;23.73;64.53;99665.50;4961752;28;20043;-74
2021/06/21 01:20:05;;;;;;;13.65;9.73;;;;;;;23.76;64.95;99676.03;4963728;28;20094;-74
2021/06/21 01:23:06;;;;;;;18.17;13.10;;;;;;;23.76;64.53;99682.31;4964220;28;20132;-75
2021/06/21 01:25:42;;;;;;;15.98;11.70;;;;;;;23.90;64.44;99697.44;4931136;28;20050;-74
2021/06/21 01:28:22;;;;;;;14.85;11.00;;;;;;;24.03;63.64;99689.31;4956538;28;20089;-75
2021/06/21 01:30:56;;;;;;;13.10;8.93;;;;;;;24.09;63.55;99687.97;4960449;28;20046;-74
2021/06/21 01:33:23;;;;;;;15.10;8.60;;;;;;;24.17;63.65;99672.94;4962893;28;20031;-74
2021/06/21 01:35:56;;;;;;;13.65;8.07;;;;;;;24.09;64.51;99671.81;4962457;28;20117;-74
2021/06/21 01:38:27;;;;;;;12.60;8.30;;;;;;;24.06;65.46;99672.88;4962820;28;20058;-74
2021/06/21 01:40:54;;;;;;;12.40;7.80;;;;;;;24.05;64.77;99672.03;4963365;28;20403;-74
2021/06/21 01:43:25;;;;;;;12.25;7.47;;;;;;;23.95;65.34;99679.09;4962637;28;20562;-75
2021/06/21 01:45:50;;;;;;;12.45;8.73;;;;;;;23.83;66.08;99682.69;4962956;28;20118;-74
2021/06/21 01:48:21;;;;;;;14.05;8.90;;;;;;;23.76;66.20;99685.00;4963007;28;20169;-74
2021/06/21 01:50:47;;;;;;;16.20;11.65;;;;;;;23.79;65.92;99683.94;4962475;28;20128;-74
2021/06/21 01:53:18;;;;;;;17.20;9.73;;;;;;;23.76;66.08;99702.97;4963119;28;20057;-74
2021/06/21 01:55:57;;;;;;;15.63;9.13;;;;;;;23.67;66.68;99700.94;4962433;28;20131;-75
2021/06/21 01:58:24;;;;;;;14.48;9.55;;;;;;;23.52;67.16;99719.94;4961732;28;20179;-74
2021/06/21 02:00:50;;;;;;;17.27;8.30;;;;;;;23.51;68.18;99731.69;4963371;28;20035;-74
2021/06/21 02:03:18;;;;;;;11.57;7.15;;;;;;;23.39;68.73;99732.56;4962338;28;20117;-75
2021/06/21 02:05:43;;;;;;;13.85;7.25;;;;;;;23.32;68.84;99728.63;4962215;28;20043;-74
2021/06/21 02:08:13;;;;;;;9.85;5.75;;;;;;;23.15;68.40;99717.22;4963329;28;20137;-75
2021/06/21 02:10:39;;;;;;;10.75;5.28;;;;;;;23.11;68.69;99722.94;4962291;28;20122;-75
2021/06/21 02:13:07;;;;;;;11.30;4.82;;;;;;;23.00;69.05;99726.38;4963361;28;20166;-74
2021/06/21 02:15:33;;;;;;;13.10;4.90;;;;;;;22.94;69.01;99732.16;4961232;28;20031;-74
2021/06/21 02:18:00;;;;;;;7.55;4.60;;;;;;;22.88;68.71;99721.84;4963989;28;20511;-74
2021/06/21 02:20:26;;;;;;;10.43;4.18;;;;;;;22.87;68.25;99722.78;4960821;28;20050;-74
2021/06/21 02:22:52;;;;;;;9.35;3.78;;;;;;;22.85;68.55;99725.59;4964082;28;20491;-75
2021/06/21 02:25:18;;;;;;;7.80;3.60;;;;;;;22.68;68.54;99726.75;4942799;28;20058;-74
2021/06/21 02:27:44;;;;;;;9.63;3.35;;;;;;;22.65;68.47;99710.84;4961572;28;20113;-74
2021/06/21 02:30:15;;;;;;;8.65;4.00;;;;;;;22.73;68.27;99697.72;4962720;28;20038;-75
2021/06/21 02:32:45;;;;;;;9.63;3.70;;;;;;;22.68;68.27;99686.41;4961771;28;20038;-74
2021/06/21 02:35:12;;;;;;;7.45;3.20;;;;;;;22.62;68.74;99684.16;4959374;28;20028;-74
2021/06/21 02:37:39;;;;;;;6.50;3.10;;;;;;;22.54;68.87;99678.47;4944970;28;20027;-74
2021/06/21 02:40:07;;;;;;;6.05;2.88;;;;;;;22.59;68.26;99673.63;4962274;28;20163;-74
2021/06/21 02:42:33;;;;;;;7.78;2.92;;;;;;;22.54;69.12;99670.41;4962269;28;20046;-75
2021/06/21 02:44:58;;;;;;;6.60;3.35;;;;;;;22.49;68.74;99665.34;4961211;28;20035;-74
2021/06/21 02:47:24;;;;;;;7.47;3.00;;;;;;;22.47;69.15;99671.78;4963499;28;20031;-74
2021/06/21 02:49:50;;;;;;;9.35;3.00;;;;;;;22.51;68.90;99676.00;4960565;28;20043;-74
2021/06/21 02:52:28;;;;;;;6.68;2.72;;;;;;;22.49;69.81;99673.41;4960570;28;20043;-74
2021/06/21 02:55:08;;;;;;;7.57;2.95;;;;;;;22.52;69.63;99673.19;4925241;28;20136;-74
2021/06/21 02:57:44;;;;;;;6.22;2.80;;;;;;;22.48;69.48;99681.59;4961891;28;20042;-74
2021/06/21 03:00:10;;;;;;;6.22;2.95;;;;;;;22.54;68.90;99673.09;4946266;28;20046;-75
2021/06/21 03:02:39;;;;;;;6.13;3.28;;;;;;;22.60;69.48;99669.97;4961494;28;20062;-74
2021/06/21 03:05:06;;;;;;;6.47;2.90;;;;;;;22.56;70.03;99663.09;4966108;28;20039;-75
2021/06/21 03:07:33;;;;;;;8.23;2.72;;;;;;;22.61;69.36;99652.88;4964944;28;20050;-74
2021/06/21 03:09:59;;;;;;;7.82;3.20;;;;;;;22.54;69.52;99644.38;4965395;28;20560;-75
2021/06/21 03:12:27;;;;;;;5.75;3.00;;;;;;;22.53;69.59;99636.38;4965799;28;20034;-74
2021/06/21 03:14:53;;;;;;;7.68;3.20;;;;;;;22.57;69.62;99626.28;4964751;28;20035;-74
2021/06/21 03:17:20;;;;;;;10.85;3.60;;;;;;;22.58;69.60;99618.09;4966463;28;20043;-74
2021/06/21 03:19:47;;;;;;;7.20;3.72;;;;;;;22.55;69.47;99615.63;4964136;28;20043;-74
2021/06/21 03:22:13;;;;;;;7.70;3.17;;;;;;;22.53;70.14;99605.00;4966715;28;20027;-74
2021/06/21 03:24:38;;;;;;;8.25;3.42;;;;;;;22.61;69.62;99608.97;4963319;28;20061;-75
2021/06/21 03:27:05;;;;;;;7.15;3.63;;;;;;;22.66;70.06;99602.31;4966436;28;20031;-75
2021/06/21 03:29:31;;;;;;;7.82;3.60;;;;;;;22.66;69.93;99596.94;4964149;28;20041;-74
2021/06/21 03:31:56;;;;;;;12.43;4.90;;;;;;;22.70;69.84;99600.25;4965652;28;20031;-75
2021/06/21 03:34:24;;;;;;;7.40;3.30;;;;;;;22.73;69.88;99591.97;4964847;28;20392;-74
2021/06/21 03:36:50;;;;;;;8.40;3.65;;;;;;;22.69;69.65;99577.03;4958081;28;20038;-74
2021/06/21 03:39:16;;;;;;;7.70;3.80;;;;;;;22.66;70.07;99572.72;4964314;28;20122;-74
2021/06/21 03:41:43;;;;;;;10.13;4.28;;;;;;;22.68;69.93;99581.53;4965763;28;20066;-74
2021/06/21 03:44:08;;;;;;;7.93;3.55;;;;;;;22.67;69.70;99579.81;4963440;28;20610;-74
2021/06/21 03:46:34;;;;;;;7.97;3.97;;;;;;;22.61;69.74;99571.31;4966221;28;20039;-75
2021/06/21 03:49:00;;;;;;;10.48;4.03;;;;;;;22.68;69.42;99569.91;4963362;28;20397;-74
2021/06/21 03:51:25;;;;;;;8.90;4.25;;;;;;;22.63;69.60;99554.09;4957908;28;20495;-74
2021/06/21 03:53:51;;;;;;;11.30;4.53;;;;;;;22.68;69.74;99560.00;4964151;28;20086;-74
2021/06/21 03:56:18;;;;;;;7.40;3.55;;;;;;;22.72;69.53;99557.97;4947043;28;20488;-74
2021/06/21 03:58:45;;;;;;;11.02;5.40;;;;;;;22.73;69.36;99540.84;4947648;28;20038;-74
2021/06/21 04:01:11;;;;;;;12.70;6.88;;;;;;;22.83;69.25;99541.06;4930874;28;20051;-74
2021/06/21 04:03:36;;;;;;;9.32;5.18;;;;;;;22.96;68.70;99552.66;4965617;28;20093;-74
2021/06/21 04:06:02;;;;;;;11.05;6.15;;;;;;;23.04;68.69;99555.66;4962404;28;20118;-74
2021/06/21 04:08:27;;;;;;;8.80;6.00;;;;;;;23.10;68.45;99548.97;4966166;28;20042;-74
2021/06/21 04:10:53;;;;;;;8.60;6.25;;;;;;;23.16;68.54;99549.38;4945769;28;20035;-75
2021/06/21 04:13:19;;;;;;;10.27;5.10;;;;;;;23.18;68.17;99560.88;4964941;28;20484;-74
2021/06/21 04:15:45;;;;;;;12.90;4.18;;;;;;;23.16;68.04;99561.97;4963564;28;20573;-74
2021/06/21 04:18:14;;;;;;;6.93;3.60;;;;;;;23.16;68.18;99559.25;4963759;28;20045;-74
2021/06/21 04:20:41;;;;;;;6.60;3.33;;;;;;;23.15;67.90;99569.19;4964577;28;20134;-74
2021/06/21 04:23:07;;;;;;;9.52;4.07;;;;;;;23.12;68.45;99563.19;4963621;28;20072;-74
2021/06/21 04:25:33;;;;;;;8.23;3.80;;;;;;;23.17;68.37;99555.63;4947434;28;20557;-74
2021/06/21 04:27:58;;;;;;;8.95;4.30;;;;;;;23.24;68.25;99546.13;4962750;28;20035;-74
2021/06/21 04:30:24;;;;;;;9.20;4.13;;;;;;;23.31;68.07;99550.06;4965834;28;20410;-75
2021/06/21 04:32:51;;;;;;;7.10;4.00;;;;;;;23.36;67.79;99547.03;4962410;28;20038;-74
2021/06/21 04:35:18;;;;;;;9.20;4.93;;;;;;;23.45;67.77;99549.03;4964875;28;20043;-74
2021/06/21 04:37:44;;;;;;;9.60;4.18;;;;;;;23.46;67.04;99561.53;4963001;28;20042;-74
2021/06/21 04:40:12;;;;;;;6.35;3.55;;;;;;;23.44;67.47;99554.53;4964297;28;20106;-74
2021/06/21 04:42:38;;;;;;;7.90;4.00;;;;;;;23.36;67.60;99555.97;4946097;28;20505;-75
2021/06/21 04:45:05;;;;;;;8.77;3.85;;;;;;;23.39;68.26;99562.94;4963274;28;20031;-74
2021/06/21 04:47:31;;;;;;;8.95;3.83;;;;;;;23.41;68.05;99564.56;4946895;28;20561;-74
2021/06/21 04:49:57;;;;;;;6.15;3.33;;;;;;;23.45;67.45;99570.59;4962797;28;20035;-74
2021/06/21 04:52:26;;;;;;;8.70;4.15;;;;;;;23.49;67.51;99563.13;4964937;28;20173;-74
2021/06/21 04:54:51;;;;;;;7.60;4.30;;;;;;;23.54;67.81;99569.03;4944668;28;20380;-74
2021/06/21 04:57:17;;;;;;;12.07;9.50;;;;;;;23.57;67.90;99566.94;4965174;28;20042;-75
2021/06/21 04:59:44;;;;;;;9.68;5.25;;;;;;;23.69;67.25;99573.25;4942601;29;20043;-75
2021/06/21 05:02:09;;;;;;;6.90;4.05;;;;;;;23.78;66.76;99572.56;4964122;28;20046;-75
2021/06/21 05:04:34;;;;;;;7.88;4.03;;;;;;;23.82;66.45;99573.22;4945415;28;20026;-74
2021/06/21 05:07:00;;;;;;;9.32;5.05;;;;;;;23.86;66.55;99580.06;4963084;28;20102;-74
2021/06/21 05:09:25;;;;;;;8.73;4.05;;;;;;;23.93;66.82;99581.34;4963962;28;20038;-74
2021/06/21 05:11:51;;;;;;;7.25;4.03;;;;;;;24.05;66.49;99584.91;4962284;28;20048;-74
2021/06/21 05:14:17;;;;;;;7.10;3.40;;;;;;;24.02;66.09;99580.59;4958766;28;20082;-75
2021/06/21 05:16:42;;;;;;;7.95;4.50;;;;;;;24.02;65.67;99574.38;4964883;28;20399;-74
2021/06/21 05:19:07;;;;;;;9.75;4.38;;;;;;;24.04;65.95;99575.13;4961866;28;20567;-74
2021/06/21 05:21:33;;;;;;;11.25;4.95;;;;;;;24.12;65.67;99579.91;4963717;28;20138;-75
2021/06/21 05:23:59;;;;;;;8.20;5.35;;;;;;;24.15;65.49;99576.97;4962710;28;20034;-75
2021/06/21 05:26:24;;;;;;;7.72;4.70;;;;;;;24.23;65.21;99588.00;4962030;28;20492;-74
2021/06/21 05:28:50;;;;;;;10.20;4.30;;;;;;;24.32;64.73;99584.63;4963648;28;20049;-75
2021/06/21 05:31:15;;;;;;;12.85;5.07;;;;;;;24.36;64.98;99583.38;4961710;28;20046;-74
2021/06/21 05:33:43;;;;;;;8.07;4.38;;;;;;;24.55;64.15;99581.94;4964690;28;20065;-74
2021/06/21 05:36:08;;;;;;;10.07;4.28;;;;;;;24.60;64.10;99591.44;4960682;28;20031;-75
2021/06/21 05:38:34;;;;;;;9.10;4.90;;;;;;;24.66;64.12;99595.47;4964589;28;20138;-74
2021/06/21 05:40:59;;;;;;;7.75;4.50;;;;;;;24.73;63.59;99599.38;4961802;28;20511;-74
2021/06/21 05:43:24;;;;;;;7.13;4.43;;;;;;;24.82;63.02;99595.97;4963092;28;20405;-75
2021/06/21 05:45:50;;;;;;;8.82;3.88;;;;;;;24.88;63.19;99600.84;4962496;28;20039;-74
2021/06/21 05:48:15;;;;;;;15.43;4.38;;;;;;;25.00;62.79;99607.13;4962098;28;20031;-74
2021/06/21 05:50:41;;;;;;;9.85;4.85;;;;;;;24.97;62.82;99603.78;4963896;28;20039;-74
2021/06/21 05:53:07;;;;;;;9.70;5.63;;;;;;;25.09;62.77;99610.91;4961053;28;20137;-75
2021/06/21 05:55:32;;;;;;;8.27;4.72;;;;;;;25.27;61.86;99611.28;4964155;28;20483;-74
2021/06/21 05:57:58;;;;;;;7.97;4.22;;;;;;;25.39;61.50;99614.78;4961420;28;20052;-75
2021/06/21 06:00:24;;;;;;;7.65;4.20;;;;;;;25.35;60.87;99609.66;4963405;28;20027;-75
2021/06/21 06:02:50;;;;;;;6.47;4.22;;;;;;;25.22;61.45;99619.75;4962162;28;20526;-74
2021/06/21 06:05:16;;;;;;;8.23;4.10;;;;;;;25.07;61.65;99621.84;4962098;28;20042;-74
2021/06/21 06:07:42;;;;;;;8.05;3.92;;;;;;;25.02;61.73;99620.47;4963087;28;20510;-74
2021/06/21 06:10:08;;;;;;;7.72;3.63;;;;;;;24.93;62.61;99631.03;4961535;28;20038;-74
2021/06/21 06:12:34;;;;;;;13.15;4.38;;;;;;;24.97;62.31;99636.16;4963854;28;20038;-74
2021/06/21 06:14:59;;;;;;;10.02;4.88;;;;;;;25.03;61.74;99631.16;4960609;28;20032;-74
2021/06/21 06:17:25;;;;;;;9.60;4.97;;;;;;;25.09;61.99;99635.19;4963971;28;20030;-75
2021/06/21 06:19:51;;;;;;;11.45;4.07;;;;;;;25.09;61.12;99629.78;4961220;28;20448;-74
2021/06/21 06:22:16;;;;;;;10.88;3.42;;;;;;;25.00;61.93;99630.56;4962897;28;20122;-74
2021/06/21 06:24:42;;;;;;;12.93;4.25;;;;;;;25.05;61.99;99633.75;4962100;28;20035;-75
2021/06/21 06:27:07;;;;;;;9.23;4.75;;;;;;;25.19;61.68;99644.31;4961820;28;20503;-74
2021/06/21 06:29:33;;;;;;;14.25;4.07;;;;;;;25.25;61.26;99637.53;4963355;28;20042;-74
2021/06/21 06:32:00;;;;;;;7.40;3.97;;;;;;;25.30;60.75;99646.13;4960863;28;20043;-74
2021/06/21 06:34:26;;;;;;;7.30;3.65;;;;;;;25.35;61.19;99646.63;4963777;28;20538;-74
2021/06/21 06:36:52;;;;;;;9.65;5.07;;;;;;;25.31;61.38;99651.41;4957455;28;20097;-74
2021/06/21 06:39:18;;;;;;;7.47;4.10;;;;;;;25.27;61.68;99655.34;4967355;28;20042;-75
2021/06/21 06:41:43;;;;;;;8.45;3.95;;;;;;;25.16;62.39;99649.09;4965113;28;20054;-74
2021/06/21 06:44:09;;;;;;;8.50;4.22;;;;;;;24.97;62.38;99650.56;4968249;28;20050;-74
2021/06/21 06:46:34;;;;;;;9.73;4.07;;;;;;;24.89;62.87;99651.16;4932524;28;20050;-74
2021/06/21 06:49:00;;;;;;;7.63;3.72;;;;;;;24.95;62.79;99666.00;4949389;28;20049;-75
2021/06/21 06:51:28;;;;;;;7.68;3.58;;;;;;;24.92;62.93;99656.31;4964409;28;20058;-74
2021/06/21 06:54:03;;;;;;;8.27;3.95;;;;;;;24.86;62.93;99656.81;4967265;28;20124;-75
2021/06/21 06:59:14;;;;;;;10.02;5.05;;;;;;;24.96;63.23;99653.38;4964332;28;20039;-74
2021/06/21 07:01:39;;;;;;;8.27;4.35;;;;;;;25.16;62.31;99658.06;4949185;28;20528;-74
2021/06/21 07:04:04;;;;;;;8.73;4.00;;;;;;;25.25;62.15;99656.44;4965265;28;20035;-74
2021/06/21 07:06:31;;;;;;;8.98;3.75;;;;;;;25.20;62.59;99664.91;4964877;28;20039;-74
2021/06/21 07:08:57;;;;;;;7.75;4.45;;;;;;;25.21;62.12;99672.03;4965946;28;20422;-74
2021/06/21 07:11:22;;;;;;;9.00;3.53;;;;;;;25.04;62.39;99670.66;4964297;28;20035;-74
2021/06/21 07:13:47;;;;;;;7.10;4.03;;;;;;;25.09;62.74;99667.59;4967075;28;20035;-74
2021/06/21 07:16:13;;;;;;;9.73;5.97;;;;;;;25.16;62.55;99674.25;4963583;28;20447;-75
2021/06/21 07:18:38;;;;;;;9.45;4.45;;;;;;;25.35;62.02;99679.03;4966929;28;20041;-75
2021/06/21 07:21:04;;;;;;;9.32;5.55;;;;;;;25.47;61.82;99683.44;4947485;28;20062;-75
2021/06/21 07:23:29;;;;;;;9.07;4.07;;;;;;;25.62;60.15;99681.28;4965616;28;20396;-74
2021/06/21 07:25:55;;;;;;;9.35;4.65;;;;;;;25.63;60.50;99677.63;4961461;28;20047;-75
2021/06/21 07:28:20;;;;;;;10.50;3.45;;;;;;;25.82;59.27;99676.09;4965826;28;20086;-74
2021/06/21 07:30:45;;;;;;;8.98;4.05;;;;;;;25.94;59.19;99669.72;4963621;28;20499;-74
2021/06/21 07:33:11;;;;;;;9.68;3.60;;;;;;;26.05;58.07;99669.66;4966614;28;20042;-74
2021/06/21 07:35:40;;;;;;;8.95;3.22;;;;;;;26.06;57.67;99667.81;4963164;28;20063;-74
2021/06/21 07:38:06;;;;;;;8.93;3.58;;;;;;;26.02;57.92;99678.88;4927418;29;20039;-75
2021/06/21 07:40:32;;;;;;;9.65;3.50;;;;;;;26.15;56.42;99678.72;4962590;28;20031;-74
2021/06/21 07:42:57;;;;;;;7.53;3.75;;;;;;;26.27;56.68;99684.06;4948124;28;20562;-75
2021/06/21 07:45:23;;;;;;;9.38;3.08;;;;;;;26.32;56.03;99681.81;4964436;28;20114;-74
2021/06/21 07:47:48;;;;;;;8.43;3.15;;;;;;;26.41;55.78;99683.75;4964357;28;20395;-74
2021/06/21 07:50:13;;;;;;;8.15;3.05;;;;;;;26.47;56.28;99683.22;4965222;28;20130;-74
2021/06/21 07:52:39;;;;;;;9.80;3.95;;;;;;;26.63;55.97;99694.47;4963208;28;20456;-75
2021/06/21 07:55:05;;;;;;;10.45;4.05;;;;;;;26.63;55.78;99694.47;4962254;28;20470;-74
2021/06/21 07:57:30;;;;;;;6.68;3.00;;;;;;;26.65;55.92;99694.34;4965845;28;20046;-74
2021/06/21 07:59:56;;;;;;;8.77;3.63;;;;;;;26.47;56.07;99694.03;4963753;28;20045;-75
2021/06/21 08:02:22;;;;;;;9.75;2.55;;;;;;;26.39;55.30;99694.69;4964948;28;20483;-74
2021/06/21 08:04:48;;;;;;;5.75;2.22;;;;;;;26.32;54.90;99693.50;4964507;28;20031;-74
2021/06/21 08:07:14;;;;;;;6.20;2.28;;;;;;;26.26;54.57;99687.75;4946937;28;20039;-74
2021/06/21 08:09:40;;;;;;;7.93;2.42;;;;;;;26.15;54.37;99694.94;4965383;28;20030;-74
2021/06/21 08:12:06;;;;;;;8.05;1.98;;;;;;;25.96;54.25;99701.03;4962970;28;20451;-74
2021/06/21 08:14:32;;;;;;;6.93;2.20;;;;;;;25.89;54.92;99696.28;4965843;28;20041;-75
2021/06/21 08:16:57;;;;;;;5.63;1.75;;;;;;;26.01;55.19;99692.53;4962761;28;20474;-74
2021/06/21 08:19:22;;;;;;;5.28;2.08;;;;;;;26.05;55.21;99702.09;4965474;28;20039;-74
2021/06/21 08:21:48;;;;;;;5.85;1.77;;;;;;;26.01;55.11;99711.44;4963685;28;20411;-75
2021/06/21 08:24:13;;;;;;;4.70;1.70;;;;;;;26.16;54.98;99706.59;4964092;28;20384;-74
2021/06/21 08:26:38;;;;;;;5.72;1.50;;;;;;;26.21;54.74;99715.19;4963178;28;20146;-74
2021/06/21 08:29:04;;;;;;;5.20;1.60;;;;;;;26.37;54.77;99720.16;4962963;28;20078;-75
2021/06/21 08:31:29;;;;;;;7.70;2.08;;;;;;;26.42;54.32;99709.81;4965609;28;20042;-74
2021/06/21 08:33:55;;;;;;;6.15;1.98;;;;;;;26.45;54.43;99713.09;4962391;28;20551;-74
2021/06/21 08:36:20;;;;;;;6.20;2.30;;;;;;;26.61;53.89;99706.41;4965105;28;20027;-74
2021/06/21 08:38:45;;;;;;;7.28;2.20;;;;;;;26.65;53.56;99708.72;4945942;28;20046;-74
2021/06/21 08:41:11;;;;;;;7.63;2.08;;;;;;;26.46;54.30;99719.38;4963979;28;20414;-74
2021/06/21 08:43:37;;;;;;;7.50;2.17;;;;;;;26.59;53.50;99725.50;4964286;28;20407;-74
2021/06/21 08:46:02;;;;;;;5.13;2.10;;;;;;;26.78;53.82;99721.22;4962715;28;20117;-75
2021/06/21 08:48:30;;;;;;;6.88;2.00;;;;;;;26.89;52.81;99732.81;4964953;28;20174;-74
2021/06/21 08:50:56;;;;;;;7.53;2.45;;;;;;;26.81;52.81;99715.53;4962174;28;20046;-75
2021/06/21 08:53:21;;;;;;;9.02;2.15;;;;;;;26.80;53.44;99716.50;4965184;28;20042;-75
2021/06/21 08:55:50;;;;;;;6.45;2.33;;;;;;;26.95;52.37;99726.00;4961780;28;20039;-75
2021/06/21 08:58:15;;;;;;;6.15;2.22;;;;;;;26.78;53.31;99719.34;4961070;28;20035;-74
2021/06/21 09:00:40;;;;;;;9.48;3.28;;;;;;;26.86;53.47;99710.56;4963353;28;20110;-75
2021/06/21 09:03:06;;;;;;;7.57;1.92;;;;;;;26.91;53.73;99716.44;4963249;28;20109;-74
2021/06/21 09:05:34;;;;;;;8.40;2.63;;;;;;;26.91;53.00;99719.16;4962908;28;20047;-75
2021/06/21 09:08:05;;;;;;;9.95;2.20;;;;;;;27.18;53.24;99715.88;4963993;28;20039;-74
2021/06/21 09:10:32;;;;;;;7.35;1.90;;;;;;;27.33;53.09;99719.09;4963169;28;20665;-75
2021/06/21 09:13:11;;;;;;;6.60;2.10;;;;;;;27.00;52.26;99714.75;4964088;28;20031;-75
2021/06/21 09:15:39;;;;;;;7.13;2.03;;;;;;;26.97;52.24;99720.47;4963791;28;20121;-74
2021/06/21 09:18:34;;;;;;;5.35;1.77;;;;;;;26.83;52.70;99713.53;4945478;28;20190;-74
2021/06/21 09:21:20;;;;;;;7.13;1.92;;;;;;;27.01;52.29;99717.34;4961581;28;20062;-75
2021/06/21 09:23:47;;;;;;;6.18;2.00;;;;;;;27.02;52.65;99710.94;4961448;28;20035;-74
2021/06/21 09:26:16;;;;;;;6.80;2.22;;;;;;;27.25;52.42;99702.66;4957349;28;20046;-74
2021/06/21 09:28:41;;;;;;;9.30;2.00;;;;;;;27.39;51.87;99702.28;4957639;28;20034;-75
2021/06/21 09:31:07;;;;;;;7.95;2.20;;;;;;;27.51;52.15;99693.06;4964176;28;20422;-75
2021/06/21 09:33:32;;;;;;;6.03;1.75;;;;;;;27.67;50.50;99691.66;4962267;28;20069;-74
2021/06/21 09:35:58;;;;;;;7.72;2.97;;;;;;;27.88;50.07;99692.44;4962903;28;20035;-74
2021/06/21 09:38:24;;;;;;;7.47;1.77;;;;;;;28.11;48.87;99687.63;4963107;28;20030;-75
2021/06/21 09:40:50;;;;;;;6.85;1.63;;;;;;;28.28;49.43;99682.47;4962044;28;20614;-74
2021/06/21 09:43:30;;;;;;;6.85;2.00;;;;;;;27.91;49.56;99685.88;4946664;28;20071;-75
2021/06/21 09:46:14;;;;;;;7.78;1.75;;;;;;;27.78;50.48;99691.53;4962817;28;20399;-74
2021/06/21 09:48:45;;;;;;;6.15;2.60;;;;;;;28.12;49.91;99693.88;4961115;28;20056;-74
2021/06/21 09:51:40;;;;;;;9.40;2.42;;;;;;;28.40;49.00;99700.28;5035054;23;20081;-79
2021/06/21 09:54:08;;;;;;;7.93;1.98;;;;;;;28.48;48.88;99702.31;4964334;28;20104;-79
2021/06/21 09:56:45;;;;;;;9.20;1.98;;;;;;;28.36;48.65;99694.31;4990976;28;20030;-79
2021/06/21 09:59:28;;;;;;;8.93;2.40;;;;;;;28.41;48.91;99694.72;4994481;28;20041;-79
2021/06/21 10:02:12;;;;;;;7.63;2.67;;;;;;;28.52;48.65;99693.75;4953934;28;20042;-79
2021/06/21 10:04:39;;;;;;;6.07;1.80;;;;;;;28.73;47.54;99692.72;4975250;28;20095;-79
2021/06/21 10:07:24;;;;;;;6.85;2.60;;;;;;;28.81;47.98;99696.41;4974331;28;20130;-79
2021/06/21 10:09:51;;;;;;;6.95;2.42;;;;;;;29.06;47.06;99694.09;4975408;28;20027;-79
2021/06/21 10:12:20;;;;;;;6.75;1.90;;;;;;;29.24;46.25;99695.00;4943653;28;20403;-79
2021/06/21 10:14:45;;;;;;;8.40;1.70;;;;;;;29.33;46.63;99695.09;4979115;28;20121;-79
2021/06/21 10:17:11;;;;;;;6.68;1.95;;;;;;;29.14;46.08;99696.91;4980704;28;20105;-79
2021/06/21 10:19:36;;;;;;;6.50;2.10;;;;;;;29.17;46.16;99696.59;4962845;28;20035;-79
2021/06/21 10:22:03;;;;;;;10.88;2.45;;;;;;;29.41;46.62;99687.06;4957135;28;20102;-79
2021/06/21 10:24:32;;;;;;;6.47;1.90;;;;;;;29.43;45.73;99698.63;4953673;28;20816;-79
2021/06/21 10:27:05;;;;;;;6.65;1.83;;;;;;;29.44;45.13;99698.47;4979748;28;20046;-79
2021/06/21 10:29:31;;;;;;;10.00;2.45;;;;;;;29.49;45.54;99695.31;4972923;28;20045;-79
2021/06/21 10:31:58;;;;;;;8.15;2.20;;;;;;;29.57;45.24;99709.00;4946042;28;20045;-79
2021/06/21 10:34:25;;;;;;;8.73;2.80;;;;;;;29.54;44.55;99703.00;4979796;28;20066;-79
2021/06/21 10:36:53;;;;;;;8.90;2.50;;;;;;;29.25;46.30;99709.44;4961865;28;20041;-79
2021/06/21 10:39:20;;;;;;;5.15;1.67;;;;;;;29.36;46.02;99695.66;4979259;28;20043;-79
2021/06/21 10:42:04;;;;;;;7.20;2.42;;;;;;;29.42;46.93;99700.50;4962398;28;20410;-79
2021/06/21 10:44:41;;;;;;;7.32;1.95;;;;;;;29.52;45.76;99700.44;4953059;28;20416;-79
2021/06/21 10:47:26;;;;;;;9.43;2.28;;;;;;;29.80;45.49;99692.31;4947552;28;20039;-79
2021/06/21 10:49:59;;;;;;;9.73;3.40;;;;;;;29.98;45.32;99679.56;4979340;28;20090;-79
2021/06/21 10:52:33;;;;;;;6.55;2.03;;;;;;;30.22;42.27;99691.69;4976757;28;20451;-79
2021/06/21 10:55:21;;;;;;;7.20;2.17;;;;;;;30.20;43.56;99683.66;4961370;28;20138;-79
2021/06/21 10:57:47;;;;;;;7.60;2.60;;;;;;;30.13;44.28;99669.00;4952654;28;20043;-82
2021/06/21 11:00:18;;;;;;;11.57;2.78;;;;;;;30.26;43.22;99676.78;4979913;28;20027;-81
2021/06/21 11:02:43;;;;;;;9.75;2.22;;;;;;;30.42;42.94;99671.50;4978586;28;20117;-82
2021/06/21 11:05:10;;;;;;;5.50;1.92;;;;;;;30.48;43.16;99670.84;4978536;28;20156;-82
2021/06/21 11:07:36;;;;;;;8.75;2.60;;;;;;;30.39;41.90;99666.34;4971787;28;20509;-82
2021/06/21 11:10:04;;;;;;;7.25;2.17;;;;;;;30.36;41.94;99663.94;4945752;28;20105;-82
2021/06/21 11:12:29;;;;;;;8.05;2.33;;;;;;;30.45;41.56;99660.28;4962021;28;20030;-82
2021/06/21 11:15:04;;;;;;;9.93;3.85;;;;;;;30.84;40.57;99653.56;4979619;28;20097;-82
2021/06/21 11:17:32;;;;;;;5.28;2.00;;;;;;;31.10;40.36;99648.97;4960937;28;20070;-82
2021/06/21 11:19:57;;;;;;;9.57;2.50;;;;;;;31.21;38.48;99666.91;4961535;28;20038;-82
2021/06/21 11:22:40;;;;;;;5.95;1.92;;;;;;;30.87;40.20;99659.56;4961037;28;20170;-82
2021/06/21 11:25:20;;;;;;;8.32;2.15;;;;;;;30.57;39.48;99648.09;4959331;28;20089;-82
2021/06/21 11:27:46;;;;;;;12.77;2.85;;;;;;;30.90;40.14;99652.94;4948872;28;20046;-81
2021/06/21 11:30:26;;;;;;;4.95;2.00;;;;;;;31.19;39.51;99647.97;4961668;28;20043;-82
2021/06/21 11:33:04;;;;;;;6.00;2.00;;;;;;;31.40;38.70;99646.72;4946049;28;20046;-81
2021/06/21 11:35:53;;;;;;;6.10;1.98;;;;;;;31.29;37.88;99645.13;4961535;28;20062;-81
2021/06/21 11:38:27;;;;;;;7.63;2.10;;;;;;;31.35;36.39;99646.31;4977242;28;20038;-81